createdAt,value
2022-12-09T00:01:30.179Z,8.15
2022-12-09T00:03:58.136Z,8.38
2022-12-09T00:06:28.162Z,8.00
2022-12-09T00:08:58.746Z,8.07
2022-12-09T00:11:27.149Z,8.20
2022-12-09T00:13:58.055Z,8.32
2022-12-09T00:16:26.692Z,8.07
2022-12-09T00:18:54.792Z,8.88
2022-12-09T00:21:28.112Z,9.43
2022-12-09T00:23:58.668Z,9.27
2022-12-09T00:26:28.114Z,9.02
2022-12-09T00:28:57.783Z,8.60
2022-12-09T00:31:27.122Z,8.98
2022-12-09T00:33:58.017Z,9.10
2022-12-09T00:36:25.810Z,8.85
2022-12-09T00:38:55.041Z,9.23
2022-12-09T00:41:24.523Z,9.30
2022-12-09T00:43:52.541Z,9.65
2022-12-09T00:46:20.227Z,9.57
2022-12-09T00:48:48.290Z,9.48
2022-12-09T00:51:19.033Z,10.18
2022-12-09T00:53:47.416Z,9.68
2022-12-09T00:56:15.408Z,9.73
2022-12-09T00:58:44.548Z,9.57
2022-12-09T01:01:12.384Z,9.27
2022-12-09T01:03:40.509Z,9.70
2022-12-09T01:06:10.161Z,9.02
2022-12-09T01:08:39.346Z,9.18
2022-12-09T01:11:11.825Z,9.67
2022-12-09T01:13:40.799Z,9.48
2022-12-09T01:16:16.703Z,9.43
2022-12-09T01:18:45.015Z,10.00
2022-12-09T01:21:12.808Z,9.57
2022-12-09T01:23:40.805Z,9.38
2022-12-09T01:26:09.185Z,9.52
2022-12-09T01:28:39.657Z,9.70
2022-12-09T01:31:09.499Z,9.37
2022-12-09T01:33:38.560Z,9.20
2022-12-09T01:36:11.211Z,9.20
2022-12-09T01:38:38.961Z,9.33
2022-12-09T01:41:07.165Z,8.80
2022-12-09T01:43:35.064Z,8.90
2022-12-09T01:46:03.294Z,8.98
2022-12-09T01:48:34.362Z,9.10
2022-12-09T01:51:10.265Z,9.35
2022-12-09T01:53:40.683Z,9.40
2022-12-09T01:56:12.689Z,9.90
2022-12-09T01:58:40.434Z,9.35
2022-12-09T02:01:08.508Z,9.90
2022-12-09T02:03:36.314Z,10.70
2022-12-09T02:06:05.722Z,10.57
2022-12-09T02:08:33.409Z,10.70
2022-12-09T02:11:12.855Z,10.85
2022-12-09T02:13:48.494Z,11.60
2022-12-09T02:16:20.858Z,11.43
2022-12-09T02:18:56.132Z,11.52
2022-12-09T02:21:29.698Z,11.93
2022-12-09T02:24:04.753Z,11.40
2022-12-09T02:26:41.439Z,11.65
2022-12-09T02:29:42.325Z,11.45
2022-12-09T02:32:38.423Z,11.82
2022-12-09T02:35:13.547Z,12.00
2022-12-09T02:37:45.664Z,11.70
2022-12-09T02:40:19.468Z,11.88
2022-12-09T02:42:50.165Z,12.13
2022-12-09T02:45:21.053Z,11.60
2022-12-09T02:47:52.767Z,11.32
2022-12-09T02:50:26.586Z,12.02
2022-12-09T02:52:56.318Z,11.88
2022-12-09T02:55:24.418Z,12.65
2022-12-09T02:57:57.223Z,13.88
2022-12-09T03:00:25.138Z,13.88
2022-12-09T03:02:57.829Z,13.45
2022-12-09T03:05:38.829Z,13.20
2022-12-09T03:08:15.239Z,13.30
2022-12-09T03:10:50.803Z,13.95
2022-12-09T03:13:27.292Z,15.77
2022-12-09T03:16:00.205Z,16.67
2022-12-09T03:18:31.323Z,17.25
2022-12-09T03:21:03.106Z,17.20
2022-12-09T03:23:32.767Z,17.92
2022-12-09T03:26:03.401Z,18.70
2022-12-09T03:28:35.948Z,19.60
2022-12-09T03:31:08.556Z,18.75
2022-12-09T03:33:36.418Z,18.73
2022-12-09T03:36:10.726Z,17.38
2022-12-09T03:38:41.637Z,18.23
2022-12-09T03:41:17.849Z,20.13
2022-12-09T03:43:53.072Z,22.55
2022-12-09T03:46:22.146Z,25.07
2022-12-09T03:48:50.802Z,26.38
2022-12-09T03:51:23.848Z,24.73
2022-12-09T03:53:57.308Z,24.73
2022-12-09T03:56:29.379Z,24.30
2022-12-09T03:59:00.687Z,21.98
2022-12-09T04:01:30.411Z,20.73
2022-12-09T04:03:58.591Z,21.85
2022-12-09T04:06:27.886Z,19.55
2022-12-09T04:08:59.431Z,18.15
2022-12-09T04:11:30.185Z,21.40
2022-12-09T04:13:57.895Z,21.45
2022-12-09T04:16:25.967Z,21.65
2022-12-09T04:18:53.680Z,21.48
2022-12-09T04:21:21.413Z,21.65
2022-12-09T04:23:50.325Z,20.88
2022-12-09T04:26:20.715Z,20.80
2022-12-09T04:28:48.761Z,20.90
2022-12-09T04:31:18.936Z,19.63
2022-12-09T04:33:47.521Z,20.30
2022-12-09T04:36:18.678Z,19.42
2022-12-09T04:38:47.223Z,21.52
2022-12-09T04:41:16.960Z,21.58
2022-12-09T04:43:44.749Z,22.55
2022-12-09T04:46:14.409Z,24.58
2022-12-09T04:48:42.509Z,24.92
2022-12-09T04:51:11.365Z,21.83
2022-12-09T04:53:39.465Z,22.50
2022-12-09T04:56:10.061Z,20.37
2022-12-09T04:58:39.679Z,19.25
2022-12-09T05:01:08.297Z,18.75
2022-12-09T05:03:36.771Z,18.90
2022-12-09T05:06:05.759Z,18.63
2022-12-09T05:08:34.152Z,17.65
2022-12-09T05:11:02.312Z,17.53
2022-12-09T05:13:30.910Z,17.73
2022-12-09T05:16:04.251Z,18.65
2022-12-09T05:18:32.927Z,17.83
2022-12-09T05:21:00.678Z,17.13
2022-12-09T05:23:28.701Z,17.40
2022-12-09T05:25:56.626Z,17.08
2022-12-09T05:28:24.727Z,17.00
2022-12-09T05:30:52.621Z,16.37
2022-12-09T05:33:21.806Z,16.17
2022-12-09T05:35:53.046Z,16.52
2022-12-09T05:38:21.887Z,15.52
2022-12-09T05:40:49.821Z,14.98
2022-12-09T05:43:17.823Z,15.57
2022-12-09T05:45:46.082Z,16.48
2022-12-09T05:48:14.048Z,15.85
2022-12-09T05:50:43.392Z,15.93
2022-12-09T05:53:11.333Z,15.55
2022-12-09T05:55:42.341Z,15.43
2022-12-09T05:58:10.502Z,15.30
2022-12-09T06:00:38.163Z,15.38
2022-12-09T06:03:06.159Z,14.57
2022-12-09T06:05:34.526Z,14.52
2022-12-09T06:08:06.879Z,14.53
2022-12-09T06:10:35.628Z,15.75
2022-12-09T06:13:03.679Z,15.07
2022-12-09T06:15:33.664Z,14.98
2022-12-09T06:18:02.067Z,15.77
2022-12-09T06:20:29.996Z,14.98
2022-12-09T06:22:58.232Z,13.93
2022-12-09T06:25:27.369Z,14.93
2022-12-09T06:27:55.125Z,14.93
2022-12-09T06:30:23.395Z,14.80
2022-12-09T06:32:51.161Z,14.88
2022-12-09T06:35:19.040Z,15.27
2022-12-09T06:37:47.067Z,14.90
2022-12-09T06:40:15.115Z,14.88
2022-12-09T06:42:44.503Z,14.48
2022-12-09T06:45:13.053Z,14.60
2022-12-09T06:47:41.333Z,14.57
2022-12-09T06:50:10.575Z,14.45
2022-12-09T06:52:40.063Z,14.50
2022-12-09T06:55:10.040Z,14.18
2022-12-09T06:57:38.211Z,13.77
2022-12-09T07:00:09.111Z,13.40
2022-12-09T07:02:37.630Z,13.27
2022-12-09T07:05:07.600Z,13.80
2022-12-09T07:07:36.222Z,13.90
2022-12-09T07:10:04.990Z,13.93
2022-12-09T07:12:32.849Z,14.43
2022-12-09T07:15:00.728Z,14.27
2022-12-09T07:17:29.800Z,14.40
2022-12-09T07:20:03.347Z,13.98
2022-12-09T07:22:34.913Z,14.07
2022-12-09T07:25:02.829Z,14.50
2022-12-09T07:27:30.990Z,14.37
2022-12-09T07:29:59.112Z,15.15
2022-12-09T07:32:27.312Z,14.77
2022-12-09T07:34:56.513Z,15.25
2022-12-09T07:37:24.505Z,15.20
2022-12-09T07:39:52.125Z,14.93
2022-12-09T07:42:19.794Z,15.32
2022-12-09T07:44:49.147Z,15.40
2022-12-09T07:47:17.141Z,15.13
2022-12-09T07:49:45.307Z,16.13
2022-12-09T07:52:14.632Z,14.20
2022-12-09T07:54:42.168Z,14.65
2022-12-09T07:57:10.768Z,14.82
2022-12-09T07:59:38.566Z,13.90
2022-12-09T08:02:06.976Z,15.13
2022-12-09T08:04:37.652Z,14.98
2022-12-09T08:07:05.599Z,13.97
2022-12-09T08:09:35.089Z,15.45
2022-12-09T08:12:04.447Z,15.45
2022-12-09T08:14:32.927Z,14.98
2022-12-09T08:17:00.742Z,15.80
2022-12-09T08:19:28.912Z,15.35
2022-12-09T08:21:57.425Z,14.95
2022-12-09T08:24:25.433Z,14.70
2022-12-09T08:26:55.036Z,15.48
2022-12-09T08:29:23.044Z,15.02
2022-12-09T08:31:51.326Z,15.27
2022-12-09T08:34:19.800Z,15.57
2022-12-09T08:36:47.735Z,15.35
2022-12-09T08:39:16.298Z,15.65
2022-12-09T08:41:44.783Z,15.52
2022-12-09T08:44:16.254Z,14.83
2022-12-09T08:46:46.379Z,15.23
2022-12-09T08:49:18.060Z,15.83
2022-12-09T08:51:47.506Z,15.30
2022-12-09T08:54:15.953Z,14.00
2022-12-09T08:56:45.574Z,14.45
2022-12-09T08:59:15.301Z,15.82
2022-12-09T09:01:43.125Z,17.42
2022-12-09T09:04:13.409Z,17.02
2022-12-09T09:06:43.516Z,18.70
2022-12-09T09:09:13.360Z,16.88
2022-12-09T09:11:42.088Z,19.58
2022-12-09T09:14:12.433Z,19.00
2022-12-09T09:16:44.077Z,21.10
2022-12-09T09:19:17.571Z,20.23
2022-12-09T09:21:45.755Z,20.95
2022-12-09T09:24:16.242Z,20.63
2022-12-09T09:26:44.946Z,18.58
2022-12-09T09:29:13.692Z,18.40
2022-12-09T09:31:43.122Z,18.75
2022-12-09T09:34:11.688Z,18.70
2022-12-09T09:36:41.529Z,18.77
2022-12-09T09:39:09.809Z,18.65
2022-12-09T09:41:45.489Z,19.17
2022-12-09T09:44:20.562Z,20.83
2022-12-09T09:46:51.148Z,21.00
2022-12-09T09:49:25.712Z,20.70
2022-12-09T09:51:54.235Z,21.50
2022-12-09T09:54:22.130Z,20.70
2022-12-09T09:56:55.436Z,21.27
2022-12-09T09:59:32.623Z,22.17
2022-12-09T10:02:18.293Z,21.00
2022-12-09T10:04:59.190Z,21.38
2022-12-09T10:07:33.378Z,22.60
2022-12-09T10:10:12.654Z,22.63
2022-12-09T10:12:50.672Z,22.40
2022-12-09T10:15:25.009Z,21.73
2022-12-09T10:17:56.362Z,20.70
2022-12-09T10:20:26.999Z,20.73
2022-12-09T10:23:00.938Z,19.80
2022-12-09T10:25:31.275Z,18.48
2022-12-09T10:28:06.636Z,18.88
2022-12-09T10:30:41.805Z,18.52
2022-12-09T10:33:14.790Z,17.85
2022-12-09T10:35:43.375Z,18.13
2022-12-09T10:38:13.350Z,17.17
2022-12-09T10:40:55.108Z,16.88
2022-12-09T10:43:38.848Z,17.48
2022-12-09T10:46:19.655Z,16.63
2022-12-09T10:48:57.539Z,17.77
2022-12-09T10:51:29.183Z,16.45
2022-12-09T10:54:01.009Z,18.23
2022-12-09T10:56:31.540Z,16.83
2022-12-09T10:59:20.370Z,17.30
2022-12-09T11:01:50.675Z,16.73
2022-12-09T11:04:25.230Z,18.13
2022-12-09T11:06:59.313Z,17.45
2022-12-09T11:09:30.215Z,17.73
2022-12-09T11:12:00.032Z,17.40
2022-12-09T11:14:32.837Z,15.95
2022-12-09T11:17:14.457Z,16.20
2022-12-09T11:19:46.335Z,17.30
2022-12-09T11:22:23.290Z,16.35
2022-12-09T11:24:53.648Z,16.17
2022-12-09T11:27:31.034Z,16.75
2022-12-09T11:30:13.168Z,16.85
2022-12-09T11:32:56.962Z,15.45
2022-12-09T11:35:32.270Z,15.90
2022-12-09T11:38:04.326Z,15.30
2022-12-09T11:40:33.482Z,16.37
2022-12-09T11:43:01.148Z,15.80
2022-12-09T11:45:31.880Z,17.13
2022-12-09T11:48:27.701Z,15.60
2022-12-09T11:50:58.115Z,16.63
2022-12-09T11:53:29.033Z,17.73
2022-12-09T11:56:01.371Z,16.63
2022-12-09T11:58:36.168Z,16.80
2022-12-09T12:01:10.267Z,18.60
2022-12-09T12:03:42.025Z,18.30
2022-12-09T12:06:17.331Z,18.20
2022-12-09T12:08:50.579Z,19.15
2022-12-09T12:11:22.023Z,27.63
2022-12-09T12:13:51.130Z,20.60
2022-12-09T12:16:23.500Z,20.67
2022-12-09T12:18:54.622Z,21.90
2022-12-09T12:21:55.228Z,22.70
2022-12-09T12:24:37.870Z,20.85
2022-12-09T12:27:22.490Z,19.90
2022-12-09T12:29:57.286Z,18.58
2022-12-09T12:32:34.336Z,18.35
2022-12-09T12:35:22.924Z,18.73
2022-12-09T12:38:05.566Z,19.33
2022-12-09T12:40:40.824Z,20.50
2022-12-09T12:43:42.284Z,19.25
2022-12-09T12:46:29.509Z,19.55
2022-12-09T12:49:16.886Z,20.63
2022-12-09T12:51:59.635Z,21.73
2022-12-09T12:54:40.852Z,20.92
2022-12-09T12:57:17.912Z,21.87
2022-12-09T12:59:54.575Z,21.15
2022-12-09T13:02:38.495Z,21.33
2022-12-09T13:05:16.671Z,20.63
2022-12-09T13:07:49.225Z,21.00
2022-12-09T13:10:23.306Z,20.43
2022-12-09T13:12:58.179Z,20.35
2022-12-09T13:15:32.632Z,21.48
2022-12-09T13:18:07.225Z,21.27
2022-12-09T13:20:43.183Z,21.27
2022-12-09T13:23:21.915Z,21.88
2022-12-09T13:26:02.802Z,21.15
2022-12-09T13:28:38.063Z,19.50
2022-12-09T13:31:09.899Z,19.42
2022-12-09T13:33:48.821Z,19.88
2022-12-09T13:36:20.947Z,20.65
2022-12-09T13:38:49.292Z,22.23
2022-12-09T13:41:58.777Z,21.45
2022-12-09T13:44:32.187Z,21.57
2022-12-09T13:47:24.000Z,22.15
2022-12-09T13:49:57.929Z,20.27
2022-12-09T13:52:46.203Z,18.92
2022-12-09T13:55:39.482Z,19.67
2022-12-09T13:58:54.470Z,18.90
2022-12-09T14:01:26.562Z,19.52
2022-12-09T14:04:02.720Z,17.48
2022-12-09T14:06:33.535Z,17.35
2022-12-09T14:09:04.710Z,17.98
2022-12-09T14:11:47.058Z,19.83
2022-12-09T14:14:58.492Z,19.10
2022-12-09T14:18:02.267Z,18.77
2022-12-09T14:20:36.335Z,19.03
2022-12-09T14:23:17.872Z,19.08
2022-12-09T14:26:05.761Z,19.88
2022-12-09T14:29:00.363Z,20.38
2022-12-09T14:31:50.830Z,18.92
2022-12-09T14:34:44.584Z,20.20
2022-12-09T14:37:31.459Z,19.17
2022-12-09T14:40:06.717Z,19.63
2022-12-09T14:42:44.733Z,19.73
2022-12-09T14:45:22.876Z,20.13
2022-12-09T14:47:50.504Z,20.38
2022-12-09T14:50:22.366Z,19.77
2022-12-09T14:52:52.496Z,21.35
2022-12-09T14:55:23.199Z,21.75
2022-12-09T14:57:52.504Z,31.00
2022-12-09T15:00:30.488Z,23.75
2022-12-09T15:05:56.844Z,22.33
2022-12-09T15:08:32.613Z,22.95
2022-12-09T15:11:01.684Z,19.73
2022-12-09T15:13:29.345Z,19.55
2022-12-09T15:15:57.211Z,20.25
2022-12-09T15:18:26.284Z,20.88
2022-12-09T15:20:57.664Z,21.20
2022-12-09T15:23:30.708Z,29.85
2022-12-09T15:26:00.446Z,52.87
2022-12-09T15:28:30.180Z,33.08
2022-12-09T15:31:00.161Z,21.88
2022-12-09T15:33:30.084Z,20.05
2022-12-09T15:36:02.158Z,20.02
2022-12-09T15:38:40.533Z,18.20
2022-12-09T15:41:28.148Z,18.60
2022-12-09T15:44:01.284Z,20.02
2022-12-09T15:46:31.023Z,21.55
2022-12-09T15:48:59.934Z,23.27
2022-12-09T15:51:29.938Z,23.17
2022-12-09T15:54:01.494Z,20.88
2022-12-09T15:56:33.651Z,20.20
2022-12-09T15:59:07.453Z,19.80
2022-12-09T16:01:35.725Z,22.02
2022-12-09T16:04:06.732Z,18.45
2022-12-09T16:06:37.899Z,18.02
2022-12-09T16:09:13.781Z,18.07
2022-12-09T16:11:44.268Z,18.37
2022-12-09T16:14:12.715Z,18.70
2022-12-09T16:16:45.205Z,17.77
2022-12-09T16:19:27.164Z,18.67
2022-12-09T16:21:58.786Z,19.55
2022-12-09T16:24:38.944Z,17.20
2022-12-09T16:27:19.862Z,17.15
2022-12-09T16:29:50.965Z,19.50
2022-12-09T16:32:25.165Z,18.95
2022-12-09T16:34:55.048Z,20.70
2022-12-09T16:37:30.076Z,25.88
2022-12-09T16:39:58.605Z,19.02
2022-12-09T16:42:30.294Z,19.42
2022-12-09T16:45:21.044Z,17.20
2022-12-09T16:47:49.135Z,17.00
2022-12-09T16:50:16.935Z,16.97
2022-12-09T16:52:45.907Z,17.03
2022-12-09T16:55:22.225Z,16.53
2022-12-09T16:57:50.604Z,17.00
2022-12-09T17:00:19.165Z,17.23
2022-12-09T17:02:52.231Z,16.70
2022-12-09T17:05:19.962Z,15.55
2022-12-09T17:07:49.114Z,17.70
2022-12-09T17:10:17.842Z,17.47
2022-12-09T17:12:45.953Z,16.83
2022-12-09T17:15:15.519Z,17.50
2022-12-09T17:17:48.267Z,27.08
2022-12-09T17:20:16.636Z,68.17
2022-12-09T17:22:44.286Z,53.40
2022-12-09T17:25:13.506Z,51.22
2022-12-09T17:27:41.038Z,37.20
2022-12-09T17:30:10.006Z,136.50
2022-12-09T17:32:37.586Z,132.18
2022-12-09T17:35:12.347Z,102.20
2022-12-09T17:37:40.643Z,78.77
2022-12-09T17:40:09.254Z,109.63
2022-12-09T17:42:38.394Z,54.08
2022-12-09T17:45:06.977Z,29.60
2022-12-09T17:47:34.961Z,47.38
2022-12-09T17:50:02.538Z,49.63
2022-12-09T17:52:30.076Z,46.10
2022-12-09T17:54:57.670Z,28.63
2022-12-09T17:57:25.215Z,39.00
2022-12-09T17:59:54.119Z,103.65
2022-12-09T18:02:21.783Z,164.95
2022-12-09T18:04:49.561Z,111.45
2022-12-09T18:07:17.188Z,62.73
2022-12-09T18:09:49.904Z,28.88
2022-12-09T18:12:22.442Z,39.08
2022-12-09T18:14:50.008Z,36.72
2022-12-09T18:17:19.033Z,32.22
2022-12-09T18:19:46.607Z,23.67
2022-12-09T18:22:14.219Z,18.25
2022-12-09T18:24:41.837Z,17.25
2022-12-09T18:27:09.463Z,18.50
2022-12-09T18:29:37.151Z,18.25
2022-12-09T18:32:05.112Z,17.05
2022-12-09T18:34:35.583Z,15.93
2022-12-09T18:37:03.790Z,15.80
2022-12-09T18:39:31.450Z,16.15
2022-12-09T18:41:59.179Z,16.77
2022-12-09T18:44:26.842Z,16.15
2022-12-09T18:46:54.629Z,16.83
2022-12-09T18:49:23.950Z,17.38
2022-12-09T18:51:54.208Z,15.88
2022-12-09T18:54:23.743Z,17.42
2022-12-09T18:56:51.541Z,17.02
2022-12-09T18:59:20.584Z,16.98
2022-12-09T19:01:49.527Z,16.92
2022-12-09T19:04:19.142Z,17.80
2022-12-09T19:06:48.828Z,17.40
2022-12-09T19:09:19.393Z,16.00
2022-12-09T19:11:49.081Z,15.95
2022-12-09T19:14:18.395Z,15.48
2022-12-09T19:16:47.171Z,16.00
2022-12-09T19:19:16.673Z,15.77
2022-12-09T19:21:45.865Z,16.42
2022-12-09T19:24:15.664Z,16.55
2022-12-09T19:26:45.535Z,17.00
2022-12-09T19:29:14.967Z,16.35
2022-12-09T19:31:44.570Z,16.90
2022-12-09T19:34:14.954Z,16.00
2022-12-09T19:36:43.649Z,16.08
2022-12-09T19:39:12.769Z,15.82
2022-12-09T19:41:41.538Z,16.08
2022-12-09T19:44:11.985Z,15.35
2022-12-09T19:46:40.642Z,15.10
2022-12-09T19:49:08.759Z,14.98
2022-12-09T19:51:36.459Z,15.23
2022-12-09T19:54:04.467Z,15.68
2022-12-09T19:56:32.446Z,16.88
2022-12-09T19:59:00.656Z,16.45
2022-12-09T20:01:32.469Z,15.98
2022-12-09T20:04:19.007Z,16.88
2022-12-09T20:06:51.566Z,16.38
2022-12-09T20:09:24.412Z,17.40
2022-12-09T20:11:53.123Z,16.60
2022-12-09T20:14:21.160Z,17.15
2022-12-09T20:16:50.536Z,16.48
2022-12-09T20:19:19.758Z,17.48
2022-12-09T20:21:47.619Z,17.77
2022-12-09T20:24:15.586Z,17.48
2022-12-09T20:26:44.385Z,17.73
2022-12-09T20:29:12.677Z,18.45
2022-12-09T20:31:41.577Z,17.95
2022-12-09T20:34:14.751Z,17.88
2022-12-09T20:36:44.848Z,16.13
2022-12-09T20:39:15.111Z,17.08
2022-12-09T20:41:44.519Z,17.65
2022-12-09T20:44:13.901Z,17.25
2022-12-09T20:46:45.373Z,16.70
2022-12-09T20:49:14.668Z,16.65
2022-12-09T20:51:45.297Z,16.73
2022-12-09T20:54:14.403Z,17.50
2022-12-09T20:56:42.472Z,16.45
2022-12-09T20:59:11.661Z,15.85
2022-12-09T21:01:39.685Z,15.88
2022-12-09T21:04:08.443Z,15.02
2022-12-09T21:06:40.031Z,15.80
2022-12-09T21:09:11.475Z,16.45
2022-12-09T21:11:39.787Z,17.47
2022-12-09T21:14:08.737Z,18.60
2022-12-09T21:16:39.652Z,17.60
2022-12-09T21:19:10.279Z,16.90
2022-12-09T21:21:41.319Z,16.95
2022-12-09T21:24:11.044Z,16.25
2022-12-09T21:26:38.983Z,16.17
2022-12-09T21:29:06.695Z,16.88
2022-12-09T21:31:36.254Z,16.20
2022-12-09T21:34:06.340Z,16.20
2022-12-09T21:36:35.556Z,16.30
2022-12-09T21:39:05.788Z,16.10
2022-12-09T21:41:35.608Z,15.25
2022-12-09T21:44:04.240Z,16.10
2022-12-09T21:46:33.760Z,15.60
2022-12-09T21:49:04.247Z,15.20
2022-12-09T21:51:32.833Z,15.77
2022-12-09T21:54:00.750Z,15.75
2022-12-09T21:56:32.653Z,16.17
2022-12-09T21:59:00.902Z,15.30
2022-12-09T22:01:31.054Z,16.02
2022-12-09T22:04:00.252Z,16.58
2022-12-09T22:06:28.774Z,19.95
2022-12-09T22:08:58.372Z,20.55
2022-12-09T22:11:28.815Z,17.75
2022-12-09T22:13:59.900Z,16.55
2022-12-09T22:16:29.759Z,15.90
2022-12-09T22:18:58.972Z,15.35
2022-12-09T22:21:29.370Z,15.70
2022-12-09T22:23:59.328Z,16.13
2022-12-09T22:26:27.547Z,15.68
2022-12-09T22:28:55.491Z,15.10
2022-12-09T22:31:27.293Z,15.73
2022-12-09T22:33:56.706Z,15.40
2022-12-09T22:36:24.347Z,14.82
2022-12-09T22:38:51.958Z,14.68
2022-12-09T22:41:22.117Z,15.27
2022-12-09T22:43:50.639Z,15.40
2022-12-09T22:46:20.364Z,17.20
2022-12-09T22:48:49.858Z,16.58
2022-12-09T22:51:20.686Z,15.82
2022-12-09T22:53:48.897Z,15.98
2022-12-09T22:56:16.864Z,15.90
2022-12-09T22:58:44.542Z,15.35
2022-12-09T23:01:14.527Z,15.15
2022-12-09T23:03:42.316Z,16.05
2022-12-09T23:06:11.818Z,16.08
2022-12-09T23:08:41.604Z,15.90
2022-12-09T23:11:12.049Z,16.38
2022-12-09T23:13:41.418Z,15.18
2022-12-09T23:16:12.843Z,15.93
2022-12-09T23:18:41.109Z,15.50
2022-12-09T23:21:11.959Z,17.58
2022-12-09T23:23:40.376Z,16.42
2022-12-09T23:26:10.385Z,15.90
2022-12-09T23:28:38.759Z,16.13
2022-12-09T23:31:08.817Z,15.23
2022-12-09T23:33:36.936Z,15.80
2022-12-09T23:36:08.996Z,15.70
2022-12-09T23:38:38.621Z,16.40
2022-12-09T23:41:07.195Z,16.60
2022-12-09T23:43:36.926Z,16.55
2022-12-09T23:46:11.375Z,16.10
2022-12-09T23:48:42.937Z,15.70
2022-12-09T23:51:11.892Z,16.25
2022-12-09T23:53:41.917Z,16.63
2022-12-09T23:56:12.751Z,16.85
2022-12-09T23:58:40.482Z,16.48
